Terminal Aerodrome Forecast
Issued by NWS Atlanta, GA

Home | Current Version | Previous Version | Text Only | Print | Product List | Glossary On
Versions: 1 2 3 4 5 6 7 8 9 10 11 12 13 14 15 16 17 18 19 20 21 22 23 24 25 26 27 28 29 30 31 32 33 34 35 36 37
557
FTUS42 KFFC 191739
TAFAHN
TAF
KAHN 191739Z 1918/2018 04005KT P6SM FEW025 BKN040
     FM200300 10005KT P6SM BKN025 BKN100
     FM200500 13004KT P6SM -RA OVC015
     FM200700 13006KT 6SM -RA BR OVC007
     FM200900 18005KT 4SM -RA BR OVC004
     FM201100 21003KT 4SM BR OVC004
     FM201600 22005KT 5SM BR OVC015=

USA.gov is the U.S. government's official web portal to all federal, state and local government web resources and services.